This is the latest recevied weather packets stored in our database for station/object W8DRH-13. If no packets are shown the sender has not sent any weather packets the latest 10 day(s).
| Time | Temp. | Humidity | Pressure | Rain* | Wind** | Luminosity | Snow |
|---|---|---|---|---|---|---|---|
| 1777755874 | 6.11° C | 73% | 1014.1 hPa | 0 mm | - | 107 W/m² | - |
| 1777755572 | 6.11° C | 73% | 1014.3 hPa | 0 mm | - | 93 W/m² | - |
| 1777755268 | 6.11° C | 73% | 1014.3 hPa | 0 mm | - | 89 W/m² | - |
| 1777753754 | 6.11° C | 76% | 1014.3 hPa | 0 mm | - | 192 W/m² | - |
| 1777753450 | 6.11° C | 76% | 1014.4 hPa | 0 mm | - | 289 W/m² | - |
| 1777753148 | 6.11° C | 76% | 1014.5 hPa | 0 mm | - | 195 W/m² | - |
| 1777752844 | 5.56° C | 76% | 1014.6 hPa | 0 mm | - | 140 W/m² | - |
| 1777752541 | 6.11° C | 76% | 1014.8 hPa | 0 mm | - | 110 W/m² | - |
| 1777752236 | 6.11° C | 76% | 1014.6 hPa | 0 mm | - | 121 W/m² | - |
| 1777751935 | 6.11° C | 75% | 1014.8 hPa | 0 mm | - | 180 W/m² | - |
| 1777751631 | 6.11° C | 74% | 1014.6 hPa | 0 mm | - | 204 W/m² | - |
| 1777751328 | 6.67° C | 73% | 1014.8 hPa | 0 mm | - | 220 W/m² | - |
| 1777750720 | 6.67° C | 72% | 1014.8 hPa | 0 mm | - | 207 W/m² | - |
| 1777750113 | 6.67° C | 70% | 1014.9 hPa | 0 mm | - | 182 W/m² | - |
| 1777747075 | 5.56° C | 78% | 1015.1 hPa | 0 mm | - | 128 W/m² | - |
| 1777745255 | 6.67° C | 71% | 1015.3 hPa | 0 mm | - | 223 W/m² | - |
| 1777744652 | 7.22° C | 72% | 1015.2 hPa | 0 mm | - | 220 W/m² | - |
| 1777743130 | 5.56° C | 77% | 1015.3 hPa | 0 mm | - | 194 W/m² | - |
| 1777742219 | 5° C | 80% | 1015.3 hPa | 0 mm | - | 63 W/m² | - |
| 1777741006 | 5° C | 81% | 1015.4 hPa | 0 mm | - | 86 W/m² | - |
| 1777739793 | 6.11° C | 71% | 1015.4 hPa | 0 mm | - | 89 W/m² | - |
| 1777739489 | 6.67° C | 71% | 1015.3 hPa | 0 mm | - | 142 W/m² | - |
| 1777739186 | 6.67° C | 69% | 1015.6 hPa | 0 mm | - | 382 W/m² | - |
| 1777738883 | 7.22° C | 67% | 1015.5 hPa | 0 mm | - | 390 W/m² | - |
| 1777738581 | 7.22° C | 70% | 1015.6 hPa | 0 mm | - | 412 W/m² | - |
* Rain latest hour (hover to see other rain measurements)
** Current wind speed in m/s (hover to see current wind gust speed)